CFE2AN EGLC-EGPF
Flight info
| Callsign | CFE2AN |
|---|---|
| Flight time | 0h 53m |
| Altitude | 32000 |
| Route | BPK UN601 RIBEL DCT ASLIB |
| Aircraft | E190/M-SDE3GILORVW/S |
Departure
| Time | 2026-04-28 10:41 |
|---|---|
| Airport | London City Airport (EGLC) |
Arrival
| Time | 2026-04-28 11:35 |
|---|---|
| Airport | Glasgow Airport (EGPF) |
| Time | Latitude | Longitude | Altitude | Speed | Heading |
|---|---|---|---|---|---|
| 2026-04-28 10:27 | 51.50436 | 0.04823 | 24 ft | 0 kts | 313° |
| 2026-04-28 10:39 | 51.50438 | 0.04820 | 24 ft | 2 kts | 321° |
| 2026-04-28 10:39 | 51.50461 | 0.04799 | 25 ft | 6 kts | 306° |
| 2026-04-28 10:39 | 51.50470 | 0.04721 | 24 ft | 8 kts | 274° |
| 2026-04-28 10:39 | 51.50474 | 0.04612 | 24 ft | 11 kts | 273° |
| 2026-04-28 10:40 | 51.50482 | 0.04477 | 24 ft | 13 kts | 292° |
| 2026-04-28 10:40 | 51.50555 | 0.04472 | 26 ft | 9 kts | 65° |
| 2026-04-28 10:40 | 51.50554 | 0.04496 | 24 ft | 10 kts | 91° |
| 2026-04-28 10:40 | 51.50537 | 0.05050 | 24 ft | 88 kts | 92° |
| 2026-04-28 10:41 | 51.50512 | 0.06394 | 119 ft | 140 kts | 85° |
| 2026-04-28 10:41 | 51.50471 | 0.08017 | 875 ft | 153 kts | 90° |
| 2026-04-28 10:41 | 51.50450 | 0.09790 | 1924 ft | 160 kts | 77° |
| 2026-04-28 10:41 | 51.50968 | 0.11269 | 3174 ft | 156 kts | 40° |
| 2026-04-28 10:42 | 51.52040 | 0.11756 | 4292 ft | 173 kts | 3° |
| 2026-04-28 10:42 | 51.53241 | 0.11227 | 5345 ft | 185 kts | 344° |
| 2026-04-28 10:42 | 51.54371 | 0.10071 | 6329 ft | 198 kts | 324° |
| 2026-04-28 10:42 | 51.55343 | 0.08519 | 7370 ft | 201 kts | 323° |
| 2026-04-28 10:43 | 51.56495 | 0.07018 | 7891 ft | 231 kts | 332° |
| 2026-04-28 10:43 | 51.57991 | 0.05577 | 7928 ft | 269 kts | 337° |
| 2026-04-28 10:43 | 51.59689 | 0.04142 | 7913 ft | 278 kts | 338° |
| 2026-04-28 10:43 | 51.61413 | 0.02704 | 8662 ft | 281 kts | 336° |
| 2026-04-28 10:44 | 51.63111 | 0.01185 | 9427 ft | 284 kts | 335° |
| 2026-04-28 10:44 | 51.64843 | -0.00386 | 10298 ft | 287 kts | 335° |
| 2026-04-28 10:44 | 51.66607 | -0.02014 | 10792 ft | 300 kts | 334° |
| 2026-04-28 10:44 | 51.68451 | -0.03751 | 11276 ft | 312 kts | 333° |
| 2026-04-28 10:45 | 51.70329 | -0.05552 | 11996 ft | 316 kts | 333° |
| 2026-04-28 10:45 | 51.72230 | -0.07381 | 12794 ft | 319 kts | 333° |
| 2026-04-28 10:45 | 51.74144 | -0.09229 | 13639 ft | 322 kts | 333° |
| 2026-04-28 10:45 | 51.76083 | -0.11097 | 14463 ft | 326 kts | 333° |
| 2026-04-28 10:46 | 51.78042 | -0.12991 | 15219 ft | 330 kts | 334° |
| 2026-04-28 10:46 | 51.80020 | -0.14905 | 16013 ft | 333 kts | 334° |
| 2026-04-28 10:46 | 51.82024 | -0.16845 | 16757 ft | 338 kts | 336° |
| 2026-04-28 10:46 | 51.84055 | -0.18809 | 17436 ft | 342 kts | 336° |
| 2026-04-28 10:47 | 51.86108 | -0.20799 | 18221 ft | 346 kts | 337° |
| 2026-04-28 10:47 | 51.88188 | -0.22816 | 18953 ft | 350 kts | 337° |
| 2026-04-28 10:47 | 51.90287 | -0.24853 | 19640 ft | 354 kts | 337° |
| 2026-04-28 10:47 | 51.92411 | -0.26917 | 20291 ft | 357 kts | 337° |
| 2026-04-28 10:48 | 51.94552 | -0.29000 | 20940 ft | 360 kts | 337° |
| 2026-04-28 10:48 | 51.96711 | -0.31103 | 21577 ft | 364 kts | 337° |
| 2026-04-28 10:48 | 51.98889 | -0.33225 | 22222 ft | 367 kts | 337° |
| 2026-04-28 10:48 | 52.01090 | -0.35373 | 22843 ft | 371 kts | 337° |
| 2026-04-28 10:49 | 52.03308 | -0.37539 | 23502 ft | 374 kts | 337° |
| 2026-04-28 10:49 | 52.05546 | -0.39729 | 24091 ft | 377 kts | 338° |
| 2026-04-28 10:49 | 52.07805 | -0.41938 | 24648 ft | 380 kts | 338° |
| 2026-04-28 10:49 | 52.10078 | -0.44165 | 25225 ft | 383 kts | 338° |
| 2026-04-28 10:50 | 52.12373 | -0.46401 | 25784 ft | 386 kts | 338° |
| 2026-04-28 10:50 | 52.13901 | -0.47895 | 26163 ft | 388 kts | 339° |
| 2026-04-28 10:50 | 52.17016 | -0.50941 | 26863 ft | 392 kts | 339° |
| 2026-04-28 10:50 | 52.19361 | -0.53238 | 27358 ft | 395 kts | 339° |
| 2026-04-28 10:51 | 52.21724 | -0.55556 | 27850 ft | 398 kts | 339° |
| 2026-04-28 10:51 | 52.24107 | -0.57894 | 28317 ft | 401 kts | 339° |
| 2026-04-28 10:51 | 52.26507 | -0.60228 | 28780 ft | 403 kts | 339° |
| 2026-04-28 10:51 | 52.28927 | -0.62587 | 29188 ft | 406 kts | 340° |
| 2026-04-28 10:52 | 52.31360 | -0.64963 | 29611 ft | 409 kts | 341° |
| 2026-04-28 10:52 | 52.33813 | -0.67358 | 30046 ft | 412 kts | 341° |
| 2026-04-28 10:52 | 52.36282 | -0.69775 | 30464 ft | 415 kts | 341° |
| 2026-04-28 10:52 | 52.38767 | -0.72211 | 30803 ft | 418 kts | 340° |
| 2026-04-28 10:53 | 52.41273 | -0.74672 | 31123 ft | 421 kts | 340° |
| 2026-04-28 10:53 | 52.43792 | -0.77150 | 31437 ft | 424 kts | 339° |
| 2026-04-28 10:53 | 52.46327 | -0.79646 | 31747 ft | 426 kts | 339° |
| 2026-04-28 10:53 | 52.48876 | -0.82158 | 32053 ft | 429 kts | 339° |
| 2026-04-28 10:54 | 52.51441 | -0.84692 | 32343 ft | 431 kts | 338° |
| 2026-04-28 10:54 | 52.56664 | -0.89850 | 32404 ft | 445 kts | 339° |
| 2026-04-28 10:55 | 52.62018 | -0.95165 | 32433 ft | 453 kts | 338° |
| 2026-04-28 10:55 | 52.67427 | -1.00551 | 32416 ft | 455 kts | 339° |
| 2026-04-28 10:56 | 52.72819 | -1.05935 | 32362 ft | 453 kts | 339° |
| 2026-04-28 10:56 | 52.78204 | -1.11331 | 32424 ft | 450 kts | 339° |
| 2026-04-28 10:57 | 52.83552 | -1.16697 | 32408 ft | 450 kts | 339° |
| 2026-04-28 10:57 | 52.88906 | -1.22085 | 32402 ft | 451 kts | 339° |
| 2026-04-28 10:58 | 52.94261 | -1.27492 | 32404 ft | 451 kts | 339° |
| 2026-04-28 10:58 | 52.99622 | -1.32923 | 32400 ft | 451 kts | 339° |
| 2026-04-28 10:59 | 53.04943 | -1.38329 | 32425 ft | 447 kts | 339° |
| 2026-04-28 10:59 | 53.10218 | -1.43699 | 32420 ft | 446 kts | 339° |
| 2026-04-28 11:00 | 53.15527 | -1.49121 | 32426 ft | 447 kts | 339° |
| 2026-04-28 11:00 | 53.19971 | -1.53674 | 32395 ft | 447 kts | 339° |
| 2026-04-28 11:01 | 53.25258 | -1.59103 | 32419 ft | 445 kts | 338° |
| 2026-04-28 11:01 | 53.30536 | -1.64533 | 32414 ft | 446 kts | 338° |
| 2026-04-28 11:02 | 53.35823 | -1.69997 | 32423 ft | 447 kts | 338° |
| 2026-04-28 11:02 | 53.41079 | -1.75448 | 32431 ft | 447 kts | 338° |
| 2026-04-28 11:03 | 53.46374 | -1.80964 | 32440 ft | 447 kts | 338° |
| 2026-04-28 11:03 | 53.51664 | -1.86467 | 32433 ft | 447 kts | 338° |
| 2026-04-28 11:04 | 53.56957 | -1.91994 | 32430 ft | 448 kts | 338° |
| 2026-04-28 11:04 | 53.62251 | -1.97536 | 32428 ft | 448 kts | 338° |
| 2026-04-28 11:05 | 53.67538 | -2.03101 | 32438 ft | 448 kts | 338° |
| 2026-04-28 11:05 | 53.72827 | -2.08686 | 32385 ft | 448 kts | 337° |
| 2026-04-28 11:05 | 53.75525 | -2.11132 | 32449 ft | 436 kts | 345° |
| 2026-04-28 11:06 | 53.78320 | -2.13053 | 32451 ft | 433 kts | 347° |
| 2026-04-28 11:06 | 53.83928 | -2.16817 | 32427 ft | 434 kts | 347° |
| 2026-04-28 11:07 | 53.89540 | -2.20634 | 32437 ft | 435 kts | 347° |
| 2026-04-28 11:07 | 53.95151 | -2.24501 | 32438 ft | 435 kts | 347° |
| 2026-04-28 11:08 | 54.00753 | -2.28377 | 32411 ft | 436 kts | 345° |
| 2026-04-28 11:08 | 54.06155 | -2.33275 | 32426 ft | 441 kts | 340° |
| 2026-04-28 11:09 | 54.11539 | -2.38325 | 32438 ft | 441 kts | 339° |
| 2026-04-28 11:09 | 54.16879 | -2.43357 | 32431 ft | 442 kts | 339° |
| 2026-04-28 11:10 | 54.22263 | -2.48453 | 32413 ft | 443 kts | 339° |
| 2026-04-28 11:10 | 54.27635 | -2.53550 | 32436 ft | 441 kts | 339° |
| 2026-04-28 11:11 | 54.32996 | -2.58658 | 32445 ft | 441 kts | 339° |
| 2026-04-28 11:11 | 54.38368 | -2.63791 | 32448 ft | 442 kts | 339° |
| 2026-04-28 11:12 | 54.43741 | -2.68946 | 32463 ft | 441 kts | 338° |
| 2026-04-28 11:12 | 54.49106 | -2.74099 | 32471 ft | 441 kts | 338° |
| 2026-04-28 11:13 | 54.54455 | -2.79258 | 32474 ft | 434 kts | 338° |
| 2026-04-28 11:13 | 54.57030 | -2.81758 | 32470 ft | 415 kts | 338° |
| 2026-04-28 11:13 | 54.59501 | -2.84155 | 32447 ft | 401 kts | 338° |
| 2026-04-28 11:14 | 54.64290 | -2.88793 | 32452 ft | 392 kts | 339° |
| 2026-04-28 11:14 | 54.69005 | -2.93368 | 32452 ft | 391 kts | 339° |
| 2026-04-28 11:15 | 54.73736 | -2.97972 | 32473 ft | 390 kts | 338° |
| 2026-04-28 11:15 | 54.78470 | -3.02596 | 32486 ft | 390 kts | 338° |
| 2026-04-28 11:16 | 54.83197 | -3.07229 | 32481 ft | 390 kts | 338° |
| 2026-04-28 11:16 | 54.87946 | -3.11783 | 32456 ft | 390 kts | 338° |
| 2026-04-28 11:16 | 54.90341 | -3.14074 | 31855 ft | 397 kts | 338° |
| 2026-04-28 11:17 | 54.92764 | -3.16403 | 31204 ft | 397 kts | 338° |
| 2026-04-28 11:17 | 54.95181 | -3.18730 | 30588 ft | 395 kts | 338° |
| 2026-04-28 11:17 | 54.97582 | -3.21047 | 29857 ft | 394 kts | 337° |
| 2026-04-28 11:17 | 54.99975 | -3.23356 | 29159 ft | 394 kts | 337° |
| 2026-04-28 11:18 | 55.02376 | -3.25676 | 28475 ft | 395 kts | 337° |
| 2026-04-28 11:18 | 55.04772 | -3.28037 | 27805 ft | 396 kts | 336° |
| 2026-04-28 11:18 | 55.07163 | -3.30413 | 27151 ft | 394 kts | 336° |
| 2026-04-28 11:18 | 55.09536 | -3.32771 | 26530 ft | 391 kts | 336° |
| 2026-04-28 11:19 | 55.11889 | -3.35112 | 25916 ft | 387 kts | 336° |
| 2026-04-28 11:19 | 55.14226 | -3.37436 | 25308 ft | 384 kts | 336° |
| 2026-04-28 11:19 | 55.16544 | -3.39747 | 24692 ft | 381 kts | 336° |
| 2026-04-28 11:19 | 55.18840 | -3.42034 | 24128 ft | 379 kts | 336° |
| 2026-04-28 11:20 | 55.21117 | -3.44309 | 23450 ft | 376 kts | 336° |
| 2026-04-28 11:20 | 55.23373 | -3.46565 | 22761 ft | 372 kts | 336° |
| 2026-04-28 11:20 | 55.25610 | -3.48803 | 22102 ft | 368 kts | 336° |
| 2026-04-28 11:20 | 55.27745 | -3.51270 | 21451 ft | 372 kts | 323° |
| 2026-04-28 11:21 | 55.29271 | -3.54987 | 20825 ft | 383 kts | 300° |
| 2026-04-28 11:21 | 55.30154 | -3.59417 | 20221 ft | 384 kts | 292° |
| 2026-04-28 11:21 | 55.30962 | -3.63855 | 19616 ft | 379 kts | 295° |
| 2026-04-28 11:21 | 55.31984 | -3.68070 | 19026 ft | 371 kts | 303° |
| 2026-04-28 11:22 | 55.33324 | -3.71886 | 18400 ft | 364 kts | 309° |
| 2026-04-28 11:22 | 55.34723 | -3.75577 | 17736 ft | 361 kts | 310° |
| 2026-04-28 11:22 | 55.36159 | -3.79159 | 17081 ft | 356 kts | 311° |
| 2026-04-28 11:22 | 55.37606 | -3.82667 | 16442 ft | 353 kts | 311° |
| 2026-04-28 11:23 | 55.39068 | -3.86106 | 15814 ft | 349 kts | 312° |
| 2026-04-28 11:23 | 55.40517 | -3.89505 | 15188 ft | 346 kts | 312° |
| 2026-04-28 11:23 | 55.41959 | -3.92868 | 14583 ft | 342 kts | 312° |
| 2026-04-28 11:23 | 55.43390 | -3.96196 | 13960 ft | 339 kts | 313° |
| 2026-04-28 11:24 | 55.44834 | -3.99460 | 13301 ft | 337 kts | 313° |
| 2026-04-28 11:24 | 55.46269 | -4.02706 | 12648 ft | 334 kts | 312° |
| 2026-04-28 11:24 | 55.47693 | -4.05916 | 12018 ft | 331 kts | 312° |
| 2026-04-28 11:24 | 55.49106 | -4.09105 | 11403 ft | 329 kts | 311° |
| 2026-04-28 11:25 | 55.50493 | -4.12241 | 10797 ft | 327 kts | 311° |
| 2026-04-28 11:25 | 55.51909 | -4.15443 | 10176 ft | 325 kts | 311° |
| 2026-04-28 11:25 | 55.53277 | -4.18542 | 9530 ft | 323 kts | 311° |
| 2026-04-28 11:25 | 55.54674 | -4.21709 | 8877 ft | 321 kts | 311° |
| 2026-04-28 11:26 | 55.55998 | -4.24723 | 8295 ft | 304 kts | 311° |
| 2026-04-28 11:26 | 55.57248 | -4.27570 | 7989 ft | 279 kts | 311° |
| 2026-04-28 11:26 | 55.58380 | -4.30158 | 7793 ft | 258 kts | 311° |
| 2026-04-28 11:26 | 55.59460 | -4.32608 | 7429 ft | 248 kts | 311° |
| 2026-04-28 11:27 | 55.60516 | -4.34998 | 7165 ft | 245 kts | 311° |
| 2026-04-28 11:27 | 55.61568 | -4.37382 | 6823 ft | 246 kts | 311° |
| 2026-04-28 11:27 | 55.62618 | -4.39773 | 6512 ft | 245 kts | 311° |
| 2026-04-28 11:27 | 55.63662 | -4.42151 | 6202 ft | 244 kts | 310° |
| 2026-04-28 11:28 | 55.64703 | -4.44526 | 5888 ft | 244 kts | 310° |
| 2026-04-28 11:28 | 55.65743 | -4.46900 | 5572 ft | 244 kts | 310° |
| 2026-04-28 11:28 | 55.66782 | -4.49277 | 5262 ft | 244 kts | 310° |
| 2026-04-28 11:28 | 55.67821 | -4.51653 | 4934 ft | 244 kts | 310° |
| 2026-04-28 11:29 | 55.68855 | -4.54024 | 4627 ft | 243 kts | 310° |
| 2026-04-28 11:29 | 55.69888 | -4.56389 | 4313 ft | 242 kts | 310° |
| 2026-04-28 11:29 | 55.70917 | -4.58747 | 4019 ft | 241 kts | 310° |
| 2026-04-28 11:29 | 55.71941 | -4.61099 | 3696 ft | 239 kts | 311° |
| 2026-04-28 11:30 | 55.73114 | -4.63032 | 3387 ft | 224 kts | 335° |
| 2026-04-28 11:30 | 55.75872 | -4.62738 | 2834 ft | 194 kts | 28° |
| 2026-04-28 11:30 | 55.77094 | -4.61866 | 2642 ft | 184 kts | 25° |
| 2026-04-28 11:31 | 55.78063 | -4.60497 | 2377 ft | 176 kts | 53° |
| 2026-04-28 11:31 | 55.78820 | -4.58841 | 2190 ft | 171 kts | 50° |
| 2026-04-28 11:31 | 55.79657 | -4.57382 | 1986 ft | 167 kts | 46° |
| 2026-04-28 11:31 | 55.80437 | -4.55961 | 1768 ft | 154 kts | 49° |
| 2026-04-28 11:32 | 55.81136 | -4.54617 | 1558 ft | 142 kts | 49° |
| 2026-04-28 11:32 | 55.81797 | -4.53400 | 1367 ft | 134 kts | 49° |
| 2026-04-28 11:32 | 55.82444 | -4.52208 | 1178 ft | 135 kts | 47° |
| 2026-04-28 11:32 | 55.83086 | -4.51019 | 954 ft | 132 kts | 49° |
| 2026-04-28 11:33 | 55.83723 | -4.49840 | 805 ft | 133 kts | 49° |
| 2026-04-28 11:33 | 55.84356 | -4.48657 | 619 ft | 131 kts | 49° |
| 2026-04-28 11:33 | 55.84976 | -4.47494 | 439 ft | 127 kts | 49° |
| 2026-04-28 11:33 | 55.85582 | -4.46376 | 237 ft | 124 kts | 48° |
| 2026-04-28 11:34 | 55.86157 | -4.45278 | 90 ft | 119 kts | 47° |
| 2026-04-28 11:34 | 55.86715 | -4.44233 | 30 ft | 109 kts | 47° |
| 2026-04-28 11:34 | 55.87157 | -4.43396 | 28 ft | 71 kts | 47° |
| 2026-04-28 11:34 | 55.87445 | -4.42862 | 28 ft | 52 kts | 47° |
| 2026-04-28 11:35 | 55.87643 | -4.42484 | 28 ft | 28 kts | 45° |
| 2026-04-28 11:35 | 55.87749 | -4.42272 | 28 ft | 19 kts | 72° |
| 2026-04-28 11:35 | 55.87680 | -4.42154 | 28 ft | 16 kts | 173° |
| 2026-04-28 11:35 | 55.87580 | -4.42233 | 28 ft | 18 kts | 227° |
| 2026-04-28 11:36 | 55.87490 | -4.42403 | 28 ft | 20 kts | 226° |
| 2026-04-28 11:36 | 55.87384 | -4.42586 | 28 ft | 22 kts | 211° |
| 2026-04-28 11:36 | 55.87235 | -4.42695 | 28 ft | 24 kts | 202° |
| 2026-04-28 11:36 | 55.87078 | -4.42802 | 28 ft | 23 kts | 199° |
| 2026-04-28 11:37 | 55.86934 | -4.42909 | 28 ft | 21 kts | 207° |
| 2026-04-28 11:37 | 55.86805 | -4.42997 | 28 ft | 19 kts | 179° |
| 2026-04-28 11:37 | 55.86686 | -4.42942 | 28 ft | 15 kts | 163° |
| 2026-04-28 11:37 | 55.86635 | -4.42996 | 28 ft | 6 kts | 251° |
| 2026-04-28 11:38 | 55.86632 | -4.43009 | 28 ft | 0 kts | 253° |
| 2026-04-28 11:39 | 55.86633 | -4.43009 | 28 ft | 0 kts | 254° |